Time;durP1;ratioP1;P1;durP2;ratioP2;P2;SDS_P1;SDS_P2;PMS_P1;PMS_P2;Temp;Humidity;BMP_temperature;BMP_pressure;BME280_temperature;BME280_humidity;BME280_pressure;Samples;Min_cycle;Max_cycle;Signal;HPM_P1;HPM_P2
2023/12/22 00:01:08;;;;;;;26.15;6.38;;;6.10;99.90;;;;;;5051600;28;20075;-80
2023/12/22 00:03:33;;;;;;;23.88;6.07;;;6.10;99.90;;;;;;5051664;28;20040;-80
2023/12/22 00:05:59;;;;;;;22.25;5.65;;;6.00;99.90;;;;;;5052341;28;20491;-80
2023/12/22 00:08:24;;;;;;;24.20;5.10;;;6.10;99.90;;;;;;5039003;28;20043;-80
2023/12/22 00:10:50;;;;;;;19.23;4.53;;;6.10;99.90;;;;;;5038532;28;20179;-80
2023/12/22 00:13:15;;;;;;;20.50;4.82;;;6.20;99.90;;;;;;5043724;28;20190;-81
2023/12/22 00:15:42;;;;;;;19.58;5.00;;;6.30;99.90;;;;;;5052110;28;20037;-79
2023/12/22 00:18:08;;;;;;;20.73;4.97;;;6.40;99.90;;;;;;5051786;28;20509;-80
2023/12/22 00:20:34;;;;;;;21.95;4.90;;;6.40;99.90;;;;;;5051485;28;20071;-80
2023/12/22 00:22:59;;;;;;;20.33;5.32;;;6.40;99.90;;;;;;5044069;28;20135;-80
2023/12/22 00:25:25;;;;;;;20.00;5.40;;;6.40;99.90;;;;;;5036810;28;20052;-80
2023/12/22 00:27:51;;;;;;;19.25;4.53;;;6.30;99.90;;;;;;5042211;28;20555;-80
2023/12/22 00:30:16;;;;;;;25.92;5.40;;;6.30;99.90;;;;;;5051751;28;20455;-80
2023/12/22 00:32:42;;;;;;;19.52;5.10;;;6.20;99.90;;;;;;5039626;28;20029;-80
2023/12/22 00:35:08;;;;;;;23.20;5.82;;;6.10;99.90;;;;;;5051361;28;20041;-79
2023/12/22 00:37:33;;;;;;;15.43;4.25;;;6.10;99.90;;;;;;5034341;28;20279;-80
2023/12/22 00:39:59;;;;;;;23.52;5.00;;;6.10;99.90;;;;;;5050812;28;20402;-80
2023/12/22 00:42:25;;;;;;;21.30;5.30;;;6.00;99.90;;;;;;5041330;28;20403;-80
2023/12/22 00:44:51;;;;;;;18.90;4.30;;;6.10;99.90;;;;;;5040215;28;20437;-80
2023/12/22 00:47:16;;;;;;;21.83;4.93;;;6.00;99.90;;;;;;5034417;28;20081;-80
2023/12/22 00:49:42;;;;;;;16.55;4.60;;;6.00;99.90;;;;;;5051701;28;20059;-81
2023/12/22 00:52:08;;;;;;;16.25;4.13;;;6.00;99.90;;;;;;5039050;28;20033;-79
2023/12/22 00:54:33;;;;;;;18.58;4.55;;;6.00;99.90;;;;;;5048185;28;20483;-80
2023/12/22 00:56:59;;;;;;;17.38;4.65;;;6.00;99.90;;;;;;5031601;28;20044;-81
2023/12/22 00:59:24;;;;;;;18.05;4.88;;;5.90;99.90;;;;;;5031986;28;20041;-81
2023/12/22 01:01:50;;;;;;;17.30;4.55;;;5.80;99.90;;;;;;5034560;28;20056;-80
2023/12/22 01:04:16;;;;;;;22.70;5.38;;;5.80;99.90;;;;;;5043945;28;20037;-80
2023/12/22 01:06:41;;;;;;;17.65;5.18;;;5.80;99.90;;;;;;5031419;28;20131;-80
2023/12/22 01:09:07;;;;;;;25.00;5.53;;;5.80;99.90;;;;;;5031296;28;20502;-80
2023/12/22 01:11:32;;;;;;;19.55;4.93;;;5.90;99.90;;;;;;5025983;28;20090;-80
2023/12/22 01:13:58;;;;;;;19.67;4.88;;;5.90;99.90;;;;;;5022079;28;20125;-80
2023/12/22 01:16:23;;;;;;;21.10;4.68;;;6.00;99.90;;;;;;5050366;28;20080;-80
2023/12/22 01:18:50;;;;;;;19.35;4.57;;;6.10;99.90;;;;;;5049094;28;20431;-80
2023/12/22 01:21:16;;;;;;;18.92;4.97;;;6.10;99.90;;;;;;5032802;28;20487;-80
2023/12/22 01:23:42;;;;;;;22.23;5.32;;;6.20;99.90;;;;;;5047979;28;20041;-80
2023/12/22 01:26:08;;;;;;;24.95;5.43;;;6.20;99.90;;;;;;5050205;28;20461;-80
2023/12/22 01:28:34;;;;;;;22.38;5.55;;;6.20;99.90;;;;;;5049726;28;20037;-80
2023/12/22 01:31:00;;;;;;;22.27;5.15;;;6.20;99.90;;;;;;5033265;28;20094;-80
2023/12/22 01:33:26;;;;;;;22.00;5.07;;;6.20;99.90;;;;;;5025058;28;20041;-80
2023/12/22 01:35:51;;;;;;;19.30;5.00;;;6.10;99.90;;;;;;5049598;28;20052;-80
2023/12/22 01:38:17;;;;;;;19.88;4.88;;;6.10;99.90;;;;;;5049768;28;20040;-80
2023/12/22 01:40:43;;;;;;;20.55;4.90;;;6.10;99.90;;;;;;5033070;28;20040;-81
2023/12/22 01:43:08;;;;;;;22.38;4.22;;;6.10;99.90;;;;;;5041608;28;20400;-80
2023/12/22 01:45:34;;;;;;;18.38;4.20;;;6.20;99.90;;;;;;5034112;28;20345;-80
2023/12/22 01:48:00;;;;;;;17.27;3.92;;;6.30;99.90;;;;;;5036897;28;20045;-80
2023/12/22 01:50:26;;;;;;;17.60;3.80;;;6.30;99.90;;;;;;5030250;28;20033;-80
2023/12/22 01:52:53;;;;;;;18.17;4.15;;;6.20;99.90;;;;;;5028969;28;20051;-80
2023/12/22 01:55:18;;;;;;;17.88;4.32;;;6.20;99.90;;;;;;5044824;28;20041;-80
2023/12/22 01:57:46;;;;;;;19.85;4.28;;;6.10;99.90;;;;;;5042237;28;20041;-80
2023/12/22 02:00:12;;;;;;;17.70;3.92;;;6.10;99.90;;;;;;5043927;28;20072;-80
2023/12/22 02:02:40;;;;;;;14.57;4.03;;;6.00;99.90;;;;;;5048338;28;20546;-80
2023/12/22 02:05:09;;;;;;;18.05;4.22;;;6.00;99.90;;;;;;5042872;28;20041;-80
2023/12/22 02:07:34;;;;;;;18.15;4.28;;;6.00;99.90;;;;;;5049534;28;20044;-80
2023/12/22 02:10:00;;;;;;;16.90;4.07;;;6.00;99.90;;;;;;5033472;28;20473;-80
2023/12/22 02:12:26;;;;;;;17.52;4.45;;;5.90;99.90;;;;;;5024967;28;20087;-80
2023/12/22 02:14:51;;;;;;;19.98;4.75;;;5.90;99.90;;;;;;5048588;28;20106;-80
2023/12/22 02:17:32;;;;;;;19.02;5.10;;;5.80;99.90;;;;;;5048670;28;20045;-80
2023/12/22 02:19:58;;;;;;;22.38;5.05;;;5.70;99.90;;;;;;5048316;28;20037;-80
2023/12/22 02:22:24;;;;;;;18.83;4.55;;;5.60;99.90;;;;;;5041991;28;20041;-80
2023/12/22 02:24:50;;;;;;;16.20;3.70;;;5.60;99.90;;;;;;5044672;28;20608;-80
2023/12/22 02:27:30;;;;;;;18.67;4.00;;;5.60;99.90;;;;;;5042881;28;20041;-80
2023/12/22 02:30:28;;;;;;;19.02;3.58;;;5.70;99.90;;;;;;5029796;28;20045;-80
2023/12/22 02:32:58;;;;;;;11.25;2.10;;;5.80;99.90;;;;;;5009905;28;20099;-80
2023/12/22 02:35:26;;;;;;;11.35;2.10;;;5.70;99.90;;;;;;5037492;28;20120;-80
2023/12/22 02:37:53;;;;;;;11.05;2.10;;;5.60;99.90;;;;;;5051430;28;20072;-80
2023/12/22 02:40:20;;;;;;;11.68;2.50;;;5.40;99.90;;;;;;5052803;28;20044;-80
2023/12/22 02:42:46;;;;;;;11.48;2.72;;;5.20;99.90;;;;;;5045398;28;20037;-80
2023/12/22 02:45:16;;;;;;;9.05;2.33;;;5.10;99.90;;;;;;5034837;28;20034;-80
2023/12/22 02:47:42;;;;;;;10.52;2.55;;;5.00;99.90;;;;;;5044088;28;20053;-80
2023/12/22 02:50:08;;;;;;;10.65;2.50;;;4.90;99.90;;;;;;5052339;28;20040;-80
2023/12/22 02:52:35;;;;;;;8.23;2.08;;;4.90;99.90;;;;;;5027654;28;20084;-80
2023/12/22 02:55:03;;;;;;;13.00;2.22;;;4.90;99.90;;;;;;5040798;28;20401;-80
2023/12/22 02:57:29;;;;;;;11.73;2.58;;;4.90;99.90;;;;;;5030694;28;20044;-80
2023/12/22 02:59:56;;;;;;;13.32;2.47;;;4.80;99.90;;;;;;5052805;28;20041;-80
2023/12/22 03:02:22;;;;;;;14.80;2.85;;;4.80;99.90;;;;;;5045379;28;20124;-79
2023/12/22 03:04:47;;;;;;;11.77;2.92;;;4.90;99.90;;;;;;5047624;28;20130;-80
2023/12/22 03:07:13;;;;;;;15.60;2.70;;;4.90;99.90;;;;;;5017114;28;20480;-80
2023/12/22 03:09:39;;;;;;;12.25;2.75;;;5.00;99.90;;;;;;5032970;28;20037;-80
2023/12/22 03:12:06;;;;;;;14.25;2.00;;;5.00;99.90;;;;;;5023605;28;20049;-80
2023/12/22 03:14:33;;;;;;;8.50;2.13;;;4.90;99.90;;;;;;5048357;28;20037;-81
2023/12/22 03:17:03;;;;;;;8.45;1.77;;;4.70;99.90;;;;;;5042871;28;20419;-80
2023/12/22 03:19:28;;;;;;;8.13;1.40;;;4.60;99.90;;;;;;5032847;28;20464;-81
2023/12/22 03:21:54;;;;;;;6.93;1.52;;;4.50;99.90;;;;;;5039441;28;20048;-80
2023/12/22 03:24:20;;;;;;;7.60;1.73;;;4.40;99.90;;;;;;5040445;28;20041;-81
2023/12/22 03:26:46;;;;;;;7.60;1.77;;;4.40;99.90;;;;;;5023906;28;20048;-81
2023/12/22 03:29:12;;;;;;;7.32;1.67;;;4.30;99.90;;;;;;5045983;28;20116;-81
2023/12/22 03:31:37;;;;;;;8.93;2.00;;;4.20;99.90;;;;;;5050777;28;20029;-80
2023/12/22 03:34:03;;;;;;;9.13;1.98;;;4.10;99.90;;;;;;5027891;28;20036;-80
2023/12/22 03:36:28;;;;;;;8.13;1.83;;;4.10;99.90;;;;;;5034565;28;20044;-80
2023/12/22 03:38:54;;;;;;;11.48;2.15;;;4.10;99.90;;;;;;5035502;28;20048;-80
2023/12/22 03:41:20;;;;;;;11.95;2.30;;;4.10;99.90;;;;;;5051693;28;20086;-80
2023/12/22 03:43:45;;;;;;;13.07;2.28;;;4.10;99.90;;;;;;5043291;28;20083;-81
2023/12/22 03:46:11;;;;;;;11.30;2.25;;;4.10;99.90;;;;;;5038158;28;20036;-80
2023/12/22 03:48:36;;;;;;;10.75;2.50;;;4.00;99.90;;;;;;5044293;28;20033;-81
2023/12/22 03:51:02;;;;;;;14.05;2.80;;;4.10;99.90;;;;;;5034578;28;20494;-81
2023/12/22 03:53:27;;;;;;;15.15;3.28;;;4.00;99.90;;;;;;5044115;28;20044;-81
2023/12/22 03:55:53;;;;;;;17.20;3.22;;;4.00;99.90;;;;;;5051242;28;20523;-80
2023/12/22 03:58:18;;;;;;;14.20;2.80;;;4.10;99.90;;;;;;5052142;28;20048;-80
2023/12/22 04:00:44;;;;;;;12.93;3.67;;;4.10;99.90;;;;;;5034471;28;20039;-80
2023/12/22 04:03:09;;;;;;;19.20;4.00;;;4.10;99.90;;;;;;5050965;28;20106;-80
2023/12/22 04:05:35;;;;;;;15.70;3.65;;;4.20;99.90;;;;;;5031623;28;20451;-80
2023/12/22 04:08:00;;;;;;;20.95;4.00;;;4.30;99.90;;;;;;5031647;28;20546;-80
2023/12/22 04:10:26;;;;;;;17.27;4.13;;;4.40;99.90;;;;;;5031791;28;20515;-80
2023/12/22 04:12:51;;;;;;;19.30;4.40;;;4.50;99.90;;;;;;5040871;28;20037;-80
2023/12/22 04:15:17;;;;;;;20.95;4.95;;;4.50;99.90;;;;;;5020233;28;20067;-80
2023/12/22 04:17:42;;;;;;;19.92;4.22;;;4.60;99.90;;;;;;5047567;28;20040;-80
2023/12/22 04:20:08;;;;;;;22.02;4.32;;;4.70;99.90;;;;;;5051299;28;20041;-80
2023/12/22 04:22:34;;;;;;;19.38;4.60;;;4.70;99.90;;;;;;5050150;28;20040;-80
2023/12/22 04:24:59;;;;;;;17.42;4.65;;;4.80;99.90;;;;;;5026596;28;20082;-80
2023/12/22 04:27:25;;;;;;;25.17;5.32;;;4.80;99.90;;;;;;5047251;28;20415;-80
2023/12/22 04:29:50;;;;;;;21.42;5.03;;;4.90;99.90;;;;;;5031148;28;20124;-80
2023/12/22 04:32:16;;;;;;;21.35;4.43;;;4.90;99.90;;;;;;5021227;28;20034;-80
2023/12/22 04:34:41;;;;;;;20.23;4.78;;;4.90;99.90;;;;;;5038993;28;20446;-80
2023/12/22 04:37:07;;;;;;;21.17;4.65;;;5.00;99.90;;;;;;5025926;28;20049;-80
2023/12/22 04:39:32;;;;;;;20.48;4.40;;;5.00;99.90;;;;;;5050619;28;20044;-81
2023/12/22 04:41:58;;;;;;;21.73;4.97;;;5.10;99.90;;;;;;5030198;28;20049;-80
2023/12/22 04:44:24;;;;;;;21.27;4.65;;;5.10;99.90;;;;;;5046067;28;20072;-80
2023/12/22 04:46:49;;;;;;;23.55;6.00;;;5.20;99.90;;;;;;5050385;28;20399;-80
2023/12/22 04:49:15;;;;;;;22.55;5.80;;;5.30;99.90;;;;;;5021635;28;20038;-80
2023/12/22 04:51:40;;;;;;;20.58;4.55;;;5.40;99.90;;;;;;5037243;28;20025;-80
2023/12/22 04:54:06;;;;;;;21.92;5.00;;;5.40;99.90;;;;;;5021709;28;20443;-80
2023/12/22 04:56:32;;;;;;;20.05;4.55;;;5.50;99.90;;;;;;5031255;28;20447;-80
2023/12/22 04:58:57;;;;;;;21.90;4.88;;;5.50;99.90;;;;;;5031134;28;20395;-80
2023/12/22 05:01:23;;;;;;;22.52;4.57;;;5.50;99.90;;;;;;5035499;28;20032;-80
2023/12/22 05:03:49;;;;;;;20.08;4.40;;;5.50;99.90;;;;;;5020302;28;20037;-80
2023/12/22 05:06:14;;;;;;;17.25;4.35;;;5.50;99.90;;;;;;5042827;28;20041;-80
2023/12/22 05:08:40;;;;;;;21.10;4.22;;;5.50;99.90;;;;;;5030602;28;20114;-80
2023/12/22 05:11:06;;;;;;;18.13;4.15;;;5.50;99.90;;;;;;5016649;28;20505;-80
2023/12/22 05:13:31;;;;;;;21.13;4.55;;;5.60;99.90;;;;;;5038363;28;20048;-80
2023/12/22 05:15:57;;;;;;;19.67;3.95;;;5.60;99.90;;;;;;5032619;28;20033;-80
2023/12/22 05:18:24;;;;;;;20.42;4.35;;;5.60;99.90;;;;;;5050618;28;20048;-80
2023/12/22 05:20:49;;;;;;;19.13;4.50;;;5.70;99.90;;;;;;5033288;28;20045;-81
2023/12/22 05:23:15;;;;;;;19.08;4.63;;;5.70;99.90;;;;;;5025424;28;20416;-80
2023/12/22 05:25:41;;;;;;;20.02;4.75;;;5.60;99.90;;;;;;5018119;28;20041;-80
2023/12/22 05:28:07;;;;;;;20.80;4.68;;;5.60;99.90;;;;;;5050283;28;20045;-80
2023/12/22 05:30:32;;;;;;;20.88;4.68;;;5.70;99.90;;;;;;5050607;28;20041;-80
2023/12/22 05:32:58;;;;;;;23.65;4.70;;;5.70;99.90;;;;;;5041138;28;20527;-80
2023/12/22 05:35:23;;;;;;;20.35;4.82;;;5.70;99.90;;;;;;5046919;28;20488;-80
2023/12/22 05:37:49;;;;;;;21.58;4.75;;;5.70;99.90;;;;;;5013681;28;20064;-80
2023/12/22 05:40:14;;;;;;;22.23;4.90;;;5.70;99.90;;;;;;5030581;28;20116;-80
2023/12/22 05:42:40;;;;;;;19.65;4.53;;;5.80;99.90;;;;;;5030745;28;20049;-81
2023/12/22 05:45:07;;;;;;;23.85;5.00;;;5.80;99.90;;;;;;5030167;28;20104;-80
2023/12/22 05:47:33;;;;;;;23.90;5.55;;;5.90;99.90;;;;;;5013710;28;20080;-80
2023/12/22 05:49:59;;;;;;;24.58;5.20;;;5.90;99.90;;;;;;5038764;28;20072;-80
2023/12/22 05:52:24;;;;;;;22.05;4.82;;;5.90;99.90;;;;;;5042326;28;20033;-80
2023/12/22 05:54:50;;;;;;;22.42;5.28;;;6.00;99.90;;;;;;5015598;28;20076;-80
2023/12/22 05:57:16;;;;;;;19.75;4.45;;;6.00;99.90;;;;;;5028125;28;20037;-80
2023/12/22 05:59:42;;;;;;;17.50;4.63;;;6.00;99.90;;;;;;5038631;28;20484;-81
2023/12/22 06:02:08;;;;;;;22.55;5.60;;;6.00;99.90;;;;;;5041663;28;20171;-80
2023/12/22 06:04:34;;;;;;;22.80;5.53;;;6.00;99.90;;;;;;5040863;28;20086;-80
2023/12/22 06:07:00;;;;;;;20.27;5.18;;;6.00;99.90;;;;;;5033955;28;20131;-80
2023/12/22 06:09:25;;;;;;;19.80;4.97;;;6.00;99.90;;;;;;5036099;28;20087;-80
2023/12/22 06:11:51;;;;;;;23.25;5.50;;;6.00;99.90;;;;;;5028087;28;20093;-81
2023/12/22 06:14:16;;;;;;;22.13;5.30;;;6.00;99.90;;;;;;5035590;28;20122;-85
2023/12/22 06:16:42;;;;;;;22.70;5.38;;;6.00;99.90;;;;;;5029027;28;20410;-85
2023/12/22 06:19:08;;;;;;;20.77;5.57;;;6.00;99.90;;;;;;5037066;28;20430;-85
2023/12/22 06:21:36;;;;;;;22.98;4.75;;;6.00;99.90;;;;;;5053005;28;20045;-86
2023/12/22 06:24:02;;;;;;;21.45;4.95;;;6.00;99.90;;;;;;5051072;28;20045;-82
2023/12/22 06:26:28;;;;;;;22.95;4.93;;;6.00;99.90;;;;;;5040723;28;20094;-82
2023/12/22 06:28:53;;;;;;;25.33;5.10;;;6.00;99.90;;;;;;5036691;28;20036;-82
2023/12/22 06:31:20;;;;;;;20.60;4.90;;;6.00;99.90;;;;;;5053069;28;20487;-84
2023/12/22 06:33:47;;;;;;;22.08;4.60;;;6.00;99.90;;;;;;5052342;28;20083;-84
2023/12/22 06:36:23;;;;;;;19.42;4.35;;;6.00;99.90;;;;;;5040956;28;20037;-83
2023/12/22 06:38:53;;;;;;;27.25;5.63;;;6.00;99.90;;;;;;5036621;28;20115;-84
2023/12/22 06:41:29;;;;;;;17.67;4.20;;;6.00;99.90;;;;;;5053474;28;20033;-84
2023/12/22 06:43:56;;;;;;;25.02;5.70;;;6.00;99.90;;;;;;5033455;28;20037;-84
2023/12/22 06:46:23;;;;;;;18.58;4.75;;;6.00;99.90;;;;;;5032925;28;20037;-84
2023/12/22 06:48:49;;;;;;;29.73;6.13;;;6.00;99.90;;;;;;5036440;28;20086;-85
2023/12/22 06:51:21;;;;;;;28.48;5.25;;;6.10;99.90;;;;;;5036576;28;20041;-84
2023/12/22 06:53:48;;;;;;;23.65;6.03;;;6.10;99.90;;;;;;5030814;28;20119;-83
2023/12/22 06:56:23;;;;;;;26.02;6.32;;;6.10;99.90;;;;;;5035499;28;20072;-82
2023/12/22 06:58:50;;;;;;;28.00;5.82;;;6.10;99.90;;;;;;5052428;28;20035;-81
2023/12/22 07:01:23;;;;;;;22.70;5.55;;;6.10;99.90;;;;;;5048894;28;20041;-83
2023/12/22 07:03:50;;;;;;;21.38;4.90;;;6.10;99.90;;;;;;5024166;28;20041;-83
2023/12/22 07:06:16;;;;;;;24.05;5.68;;;6.10;99.90;;;;;;5033600;28;20559;-83
2023/12/22 07:08:42;;;;;;;22.90;4.57;;;6.10;99.90;;;;;;5035882;28;20072;-83
2023/12/22 07:11:09;;;;;;;19.95;5.10;;;6.20;99.90;;;;;;5030387;28;20033;-83
2023/12/22 07:13:34;;;;;;;16.60;4.63;;;6.20;99.90;;;;;;5023090;28;20038;-84
2023/12/22 07:16:02;;;;;;;19.98;4.85;;;6.20;99.90;;;;;;5049705;28;20051;-81
2023/12/22 07:18:30;;;;;;;20.73;5.22;;;6.20;99.90;;;;;;5032174;28;20132;-83
2023/12/22 07:20:57;;;;;;;18.75;4.22;;;6.20;99.90;;;;;;5027678;28;20128;-84
2023/12/22 07:23:22;;;;;;;21.23;5.10;;;6.20;99.90;;;;;;5023944;28;20049;-84
2023/12/22 07:25:48;;;;;;;18.63;4.72;;;6.20;99.90;;;;;;5038089;28;20041;-84
2023/12/22 07:28:13;;;;;;;23.20;5.53;;;6.20;99.90;;;;;;5042839;28;20038;-83
2023/12/22 07:30:39;;;;;;;19.55;4.78;;;6.20;99.90;;;;;;5032365;28;20038;-84
2023/12/22 07:33:05;;;;;;;16.20;4.60;;;6.20;99.90;;;;;;5023861;28;20045;-83
2023/12/22 07:35:30;;;;;;;23.33;4.75;;;6.20;99.90;;;;;;5043935;28;20388;-84
2023/12/22 07:37:56;;;;;;;18.52;4.47;;;6.20;99.90;;;;;;5035333;28;20128;-84
2023/12/22 07:40:22;;;;;;;19.90;3.92;;;6.10;99.90;;;;;;5052444;28;20041;-84
2023/12/22 07:42:47;;;;;;;18.02;4.40;;;6.20;99.90;;;;;;5033138;28;20040;-85
2023/12/22 07:45:13;;;;;;;20.48;4.47;;;6.10;99.90;;;;;;5043605;28;20586;-84
2023/12/22 07:47:38;;;;;;;17.55;3.92;;;6.10;99.90;;;;;;5048590;28;20052;-84
2023/12/22 07:50:08;;;;;;;18.65;4.32;;;6.10;99.90;;;;;;5039684;28;20124;-84
2023/12/22 07:52:37;;;;;;;18.70;4.13;;;6.10;99.90;;;;;;5040269;28;20129;-84
2023/12/22 07:55:04;;;;;;;17.95;4.15;;;6.00;99.90;;;;;;5031882;28;20041;-84
2023/12/22 07:57:30;;;;;;;22.08;4.78;;;6.00;99.90;;;;;;5015384;28;20049;-84
2023/12/22 07:59:56;;;;;;;16.20;4.22;;;6.00;99.90;;;;;;5023160;28;20040;-84
2023/12/22 08:02:22;;;;;;;17.95;4.38;;;6.00;99.90;;;;;;5047196;28;20041;-84
2023/12/22 08:04:50;;;;;;;18.00;4.80;;;5.90;99.90;;;;;;5035050;28;20471;-84
2023/12/22 08:07:15;;;;;;;23.10;4.90;;;5.90;99.90;;;;;;5037052;28;20040;-84
2023/12/22 08:09:41;;;;;;;24.55;4.93;;;6.00;99.90;;;;;;5044584;28;20491;-84
2023/12/22 08:12:07;;;;;;;19.98;4.82;;;6.00;99.90;;;;;;5051523;28;20135;-84
2023/12/22 08:14:33;;;;;;;21.63;5.03;;;6.00;99.90;;;;;;5051272;28;20033;-84
2023/12/22 08:16:58;;;;;;;18.90;4.53;;;6.00;99.90;;;;;;5034788;28;20472;-83
2023/12/22 08:19:25;;;;;;;17.05;3.95;;;6.00;99.90;;;;;;5051018;28;20068;-84
2023/12/22 08:21:52;;;;;;;17.80;4.40;;;6.10;99.90;;;;;;5038457;28;20052;-83
2023/12/22 08:24:18;;;;;;;15.60;3.25;;;6.10;99.90;;;;;;5046141;28;20041;-84
2023/12/22 08:26:44;;;;;;;14.52;3.05;;;6.10;99.90;;;;;;5034675;28;20041;-84
2023/12/22 08:29:09;;;;;;;17.10;3.53;;;6.10;99.90;;;;;;5049498;28;20159;-84
2023/12/22 08:31:35;;;;;;;18.25;3.78;;;6.10;99.90;;;;;;5042279;28;20101;-83
2023/12/22 08:34:00;;;;;;;15.85;3.60;;;6.10;99.90;;;;;;5031064;28;20511;-84
2023/12/22 08:36:26;;;;;;;17.50;3.95;;;6.10;99.90;;;;;;5026046;28;20183;-84
2023/12/22 08:38:51;;;;;;;16.23;3.30;;;6.10;99.90;;;;;;5039781;28;20041;-83
2023/12/22 08:41:17;;;;;;;22.65;4.03;;;6.10;99.90;;;;;;5031324;28;20041;-84
2023/12/22 08:43:42;;;;;;;17.00;4.07;;;6.10;99.90;;;;;;5031334;28;20135;-84
2023/12/22 08:46:09;;;;;;;20.60;3.80;;;6.00;99.90;;;;;;5026022;28;20128;-84
2023/12/22 08:48:35;;;;;;;18.95;4.05;;;6.00;99.90;;;;;;5047406;28;20046;-83
2023/12/22 08:51:01;;;;;;;15.57;3.83;;;6.00;99.90;;;;;;5031172;28;20046;-84
2023/12/22 08:53:29;;;;;;;15.90;3.20;;;6.00;99.90;;;;;;5030993;28;20099;-84
2023/12/22 08:55:56;;;;;;;19.42;3.65;;;6.00;99.90;;;;;;5026289;28;20553;-84
2023/12/22 08:58:22;;;;;;;17.88;3.60;;;6.00;99.90;;;;;;5035783;28;20056;-84
2023/12/22 09:00:47;;;;;;;12.80;2.97;;;6.00;99.90;;;;;;5014243;28;20037;-84
2023/12/22 09:03:13;;;;;;;16.33;3.70;;;5.90;99.90;;;;;;5014429;28;20322;-84
2023/12/22 09:05:39;;;;;;;16.33;4.20;;;6.00;99.90;;;;;;5038752;28;20041;-84
2023/12/22 09:08:05;;;;;;;20.17;3.65;;;6.00;99.90;;;;;;5021128;28;20503;-84
2023/12/22 09:10:32;;;;;;;17.33;3.85;;;6.00;99.90;;;;;;5030785;28;20045;-84
2023/12/22 09:12:58;;;;;;;20.02;3.95;;;6.00;99.90;;;;;;5031871;28;20116;-84
2023/12/22 09:15:23;;;;;;;23.95;4.25;;;6.00;99.90;;;;;;5042151;28;20124;-84
2023/12/22 09:17:51;;;;;;;16.67;3.78;;;6.00;99.90;;;;;;5030852;28;20485;-84
2023/12/22 09:20:17;;;;;;;17.92;3.67;;;6.00;99.90;;;;;;5030839;28;20045;-84
2023/12/22 09:22:42;;;;;;;19.25;4.13;;;6.00;99.90;;;;;;5014055;28;20534;-84
2023/12/22 09:25:08;;;;;;;16.23;3.50;;;6.00;99.90;;;;;;5041080;28;20403;-84
2023/12/22 09:27:34;;;;;;;22.77;4.00;;;6.00;99.90;;;;;;5033446;28;20046;-84
2023/12/22 09:29:59;;;;;;;25.52;4.50;;;6.00;99.90;;;;;;5027213;28;20407;-84
2023/12/22 09:32:26;;;;;;;19.05;3.90;;;5.90;99.90;;;;;;5033042;28;20036;-84
2023/12/22 09:34:52;;;;;;;21.48;4.25;;;5.90;99.90;;;;;;5038946;28;20056;-84
2023/12/22 09:37:18;;;;;;;21.95;4.30;;;5.90;99.90;;;;;;5013904;28;20041;-84
2023/12/22 09:39:43;;;;;;;27.52;4.22;;;5.90;99.90;;;;;;5040847;28;20143;-85
2023/12/22 09:42:09;;;;;;;23.38;4.05;;;5.90;99.90;;;;;;5050664;28;20107;-84
2023/12/22 09:44:37;;;;;;;27.98;4.78;;;5.90;99.90;;;;;;5051347;28;20079;-84
2023/12/22 09:47:05;;;;;;;24.58;4.80;;;5.90;99.90;;;;;;5054186;28;20050;-85
2023/12/22 09:49:33;;;;;;;20.77;4.10;;;5.90;99.90;;;;;;5054609;28;20043;-85
2023/12/22 09:52:01;;;;;;;24.30;4.57;;;5.90;99.90;;;;;;5027474;28;20044;-85
2023/12/22 09:54:26;;;;;;;21.10;4.30;;;5.90;99.90;;;;;;5049844;28;20041;-85
2023/12/22 09:56:53;;;;;;;20.92;4.22;;;5.90;99.90;;;;;;5037439;28;20403;-85
2023/12/22 09:59:20;;;;;;;17.70;3.58;;;5.90;99.90;;;;;;5030103;28;20076;-85
2023/12/22 10:01:48;;;;;;;16.77;3.50;;;5.90;99.90;;;;;;5052717;28;20052;-85
2023/12/22 10:04:14;;;;;;;11.52;2.88;;;5.90;99.90;;;;;;5024815;28;20041;-85
2023/12/22 10:06:40;;;;;;;11.95;2.65;;;5.90;99.90;;;;;;5049044;28;20063;-84
2023/12/22 10:09:08;;;;;;;9.63;2.35;;;5.90;99.90;;;;;;5036828;28;20503;-85
2023/12/22 10:11:36;;;;;;;6.38;2.08;;;5.90;99.90;;;;;;5054295;28;20096;-86
2023/12/22 10:14:02;;;;;;;9.80;2.45;;;5.90;99.90;;;;;;5036771;28;20032;-85
2023/12/22 10:16:28;;;;;;;8.95;2.55;;;5.90;99.90;;;;;;5025642;28;20040;-85
2023/12/22 10:18:54;;;;;;;6.30;2.40;;;5.80;99.90;;;;;;5053372;28;20033;-85
2023/12/22 10:21:20;;;;;;;7.40;2.60;;;5.80;99.90;;;;;;5036853;28;20140;-85
2023/12/22 10:23:45;;;;;;;6.53;2.65;;;5.80;99.90;;;;;;5045332;28;20069;-85
2023/12/22 10:26:11;;;;;;;7.40;2.65;;;5.80;99.90;;;;;;5050229;28;20037;-85
2023/12/22 10:28:37;;;;;;;5.72;2.13;;;5.80;99.90;;;;;;5038762;28;20046;-85
2023/12/22 10:31:06;;;;;;;6.30;2.25;;;5.80;99.90;;;;;;5036779;28;20044;-85
2023/12/22 10:33:32;;;;;;;5.57;2.13;;;5.90;99.90;;;;;;5048074;28;20459;-85
2023/12/22 10:36:01;;;;;;;5.40;1.42;;;5.80;99.90;;;;;;5028871;28;20029;-85
2023/12/22 10:38:33;;;;;;;5.25;1.10;;;5.80;99.90;;;;;;5053487;28;20052;-84
2023/12/22 10:40:59;;;;;;;7.07;1.98;;;5.90;99.90;;;;;;5049875;28;20466;-85
2023/12/22 10:43:25;;;;;;;3.50;0.80;;;5.90;99.90;;;;;;5040388;28;20060;-85
2023/12/22 10:45:52;;;;;;;5.45;1.00;;;5.90;99.90;;;;;;5053470;28;20118;-85
2023/12/22 10:48:18;;;;;;;4.63;1.17;;;5.90;99.90;;;;;;5036418;28;20033;-85
2023/12/22 10:50:44;;;;;;;4.57;1.20;;;5.90;99.90;;;;;;5045693;28;20036;-85
2023/12/22 10:53:11;;;;;;;5.00;0.98;;;5.90;99.90;;;;;;5028156;28;20442;-86
2023/12/22 10:55:36;;;;;;;4.78;1.00;;;6.00;99.90;;;;;;5033280;28;20099;-85
2023/12/22 10:58:05;;;;;;;3.63;0.90;;;6.00;99.90;;;;;;5023895;28;20044;-84
2023/12/22 11:00:33;;;;;;;4.78;0.90;;;6.00;99.90;;;;;;5022641;28;20041;-86
2023/12/22 11:03:03;;;;;;;4.07;1.00;;;6.10;99.90;;;;;;5044912;28;20052;-85
2023/12/22 11:05:32;;;;;;;3.30;0.73;;;6.10;99.90;;;;;;5035867;28;20132;-86
2023/12/22 11:08:03;;;;;;;2.65;0.75;;;6.10;99.90;;;;;;5044681;28;20090;-85
2023/12/22 11:10:30;;;;;;;4.93;0.95;;;6.10;99.90;;;;;;5028420;28;20124;-86
2023/12/22 11:12:57;;;;;;;6.20;1.08;;;6.10;99.90;;;;;;5035789;28;20071;-85
2023/12/22 11:15:24;;;;;;;4.13;1.13;;;6.10;99.90;;;;;;5049221;28;20037;-86
2023/12/22 11:17:52;;;;;;;3.60;0.93;;;6.10;99.90;;;;;;5040918;28;20050;-86
2023/12/22 11:20:18;;;;;;;4.65;1.13;;;6.10;99.90;;;;;;5032735;28;20095;-85
2023/12/22 11:22:45;;;;;;;4.65;1.38;;;6.20;99.90;;;;;;5032862;28;20553;-85
2023/12/22 11:25:11;;;;;;;5.20;1.10;;;6.20;99.90;;;;;;5021026;28;20168;-85
2023/12/22 11:27:37;;;;;;;7.15;1.55;;;6.20;99.90;;;;;;5046242;28;20128;-85
2023/12/22 11:30:08;;;;;;;4.75;1.08;;;6.20;99.90;;;;;;5016289;28;20048;-85
2023/12/22 11:32:34;;;;;;;5.38;1.10;;;6.20;99.90;;;;;;5032660;28;20041;-85
2023/12/22 11:35:00;;;;;;;2.88;0.70;;;6.20;99.90;;;;;;5043806;28;20039;-85
2023/12/22 11:37:25;;;;;;;5.47;0.95;;;6.30;99.90;;;;;;5027889;28;20044;-86
2023/12/22 11:39:52;;;;;;;4.72;0.90;;;6.30;99.90;;;;;;5015941;28;20554;-86
2023/12/22 11:42:28;;;;;;;5.00;0.90;;;6.30;99.90;;;;;;5039405;28;20037;-86
2023/12/22 11:44:54;;;;;;;5.25;0.90;;;6.30;99.90;;;;;;5032311;28;20067;-86
2023/12/22 11:47:23;;;;;;;4.40;1.05;;;6.30;99.90;;;;;;5032537;28;20038;-85
2023/12/22 11:49:50;;;;;;;4.15;0.80;;;6.40;99.90;;;;;;5040495;28;20037;-85
2023/12/22 11:53:02;;;;;;;4.57;1.10;;;6.40;99.90;;;;;;5129491;23;20104;-76
2023/12/22 11:56:08;;;;;;;4.30;0.95;;;6.40;99.90;;;;;;4960578;28;20053;-77
2023/12/22 11:59:35;;;;;;;3.22;0.93;;;6.40;99.90;;;;;;4975510;28;20042;-77
2023/12/22 12:03:43;;;;;;;3.58;0.77;;;6.40;99.90;;;;;;4973664;28;20574;-77
2023/12/22 12:06:56;;;;;;;9.18;1.50;;;6.50;99.90;;;;;;4931994;29;20044;-77
2023/12/22 12:10:05;;;;;;;3.75;0.80;;;6.40;99.90;;;;;;4921975;29;20060;-77
2023/12/22 12:13:25;;;;;;;;;;;;;;;;;;;;;
2023/12/22 12:16:28;;;;;;;5.75;0.93;;;6.50;99.90;;;;;;5023326;28;20058;-77
2023/12/22 12:25:09;;;;;;;7.47;1.13;;;6.50;99.90;;;;;;5023037;28;20049;-82
2023/12/22 12:27:36;;;;;;;4.95;1.00;;;6.50;99.90;;;;;;4995186;28;20037;-83
2023/12/22 12:30:12;;;;;;;9.13;1.52;;;6.50;99.90;;;;;;5013029;28;20491;-84
2023/12/22 12:32:37;;;;;;;7.47;1.25;;;6.60;99.90;;;;;;5031293;28;20041;-83
2023/12/22 12:35:04;;;;;;;4.88;0.93;;;6.60;99.90;;;;;;5006270;28;20045;-84
2023/12/22 12:37:30;;;;;;;5.55;1.30;;;6.60;99.90;;;;;;5011875;28;20080;-83
2023/12/22 12:40:00;;;;;;;8.30;1.15;;;6.60;99.90;;;;;;4996563;28;20072;-83
2023/12/22 12:42:30;;;;;;;6.20;1.02;;;6.60;99.90;;;;;;5029764;28;20049;-83
2023/12/22 12:44:55;;;;;;;7.30;1.30;;;6.60;99.90;;;;;;4992901;28;20037;-82
2023/12/22 12:47:21;;;;;;;5.78;1.02;;;6.70;99.90;;;;;;5014791;28;20045;-84
2023/12/22 12:49:46;;;;;;;9.30;1.50;;;6.70;99.90;;;;;;4998208;28;20040;-82
2023/12/22 12:52:15;;;;;;;19.05;2.33;;;6.70;99.90;;;;;;5015027;28;20176;-82
2023/12/22 12:54:41;;;;;;;6.40;1.42;;;6.80;99.90;;;;;;4989292;28;20036;-82
2023/12/22 12:57:07;;;;;;;7.53;1.27;;;6.80;99.90;;;;;;4995115;28;20050;-83
2023/12/22 12:59:32;;;;;;;10.25;1.45;;;6.80;99.90;;;;;;4998404;28;20041;-83